createdAt,value
2023-04-20T00:02:23.212Z,3.80
2023-04-20T00:04:50.826Z,3.80
2023-04-20T00:07:17.911Z,3.80
2023-04-20T00:09:45.217Z,3.60
2023-04-20T00:12:12.319Z,3.50
2023-04-20T00:14:39.358Z,3.50
2023-04-20T00:17:06.985Z,3.40
2023-04-20T00:19:34.318Z,3.30
2023-04-20T00:22:01.322Z,3.30
2023-04-20T00:24:28.504Z,3.40
2023-04-20T00:26:55.514Z,3.60
2023-04-20T00:29:22.684Z,3.80
2023-04-20T00:31:49.834Z,4.00
2023-04-20T00:34:16.816Z,4.00
2023-04-20T00:36:44.153Z,3.80
2023-04-20T00:39:11.190Z,3.60
2023-04-20T00:41:38.629Z,3.50
2023-04-20T00:44:08.248Z,3.40
2023-04-20T00:46:35.450Z,3.40
2023-04-20T00:49:05.341Z,3.40
2023-04-20T00:51:34.684Z,3.40
2023-04-20T00:54:02.134Z,3.40
2023-04-20T00:56:29.147Z,3.30
2023-04-20T00:58:56.698Z,3.20
2023-04-20T01:01:23.739Z,3.10
2023-04-20T01:03:51.151Z,2.80
2023-04-20T01:06:18.326Z,2.70
2023-04-20T01:08:52.420Z,2.50
2023-04-20T01:11:19.555Z,2.30
2023-04-20T01:13:46.614Z,2.00
2023-04-20T01:16:13.925Z,1.70
2023-04-20T01:18:44.692Z,1.70
2023-04-20T01:21:49.191Z,1.60
2023-04-20T01:24:16.512Z,1.70
2023-04-20T01:26:43.546Z,1.80
2023-04-20T01:29:11.044Z,1.90
2023-04-20T01:31:38.129Z,2.10
2023-04-20T01:34:05.396Z,2.30
2023-04-20T01:36:33.864Z,2.40
2023-04-20T01:39:13.627Z,2.60
2023-04-20T01:41:41.318Z,2.70
2023-04-20T01:44:08.391Z,2.90
2023-04-20T01:46:42.126Z,2.80
2023-04-20T01:49:09.466Z,2.80
2023-04-20T01:51:37.406Z,2.90
2023-04-20T01:54:04.622Z,2.80
2023-04-20T01:56:31.838Z,2.80
2023-04-20T01:58:59.195Z,2.80
2023-04-20T02:01:30.294Z,2.80
2023-04-20T02:03:57.530Z,2.90
2023-04-20T02:06:24.632Z,3.00
2023-04-20T02:08:51.703Z,3.00
2023-04-20T02:11:18.786Z,2.90
2023-04-20T02:13:45.825Z,2.90
2023-04-20T02:16:12.958Z,2.70
2023-04-20T02:18:40.004Z,2.40
2023-04-20T02:21:07.122Z,2.40
2023-04-20T02:23:34.356Z,2.60
2023-04-20T02:26:01.448Z,2.80
2023-04-20T02:28:28.537Z,2.90
2023-04-20T02:30:56.231Z,2.90
2023-04-20T02:33:23.404Z,2.90
2023-04-20T02:35:53.750Z,2.90
2023-04-20T02:38:20.835Z,2.80
2023-04-20T02:40:47.908Z,2.60
2023-04-20T02:43:16.033Z,2.60
2023-04-20T02:45:44.047Z,2.70
2023-04-20T02:48:12.245Z,2.70
2023-04-20T02:50:41.743Z,2.60
2023-04-20T02:56:21.966Z,2.50
2023-04-20T02:58:55.665Z,2.50
2023-04-20T03:01:27.535Z,2.50
2023-04-20T03:04:07.261Z,2.60
2023-04-20T03:06:40.812Z,2.60
2023-04-20T03:09:13.533Z,2.80
2023-04-20T03:11:53.866Z,2.90
2023-04-20T03:14:44.232Z,2.90
2023-04-20T03:17:11.646Z,3.00
2023-04-20T03:19:38.761Z,3.00
2023-04-20T03:22:05.886Z,3.10
2023-04-20T03:24:34.610Z,3.00
2023-04-20T03:27:10.640Z,3.00
2023-04-20T03:29:49.063Z,2.90
2023-04-20T03:32:16.812Z,2.80
2023-04-20T03:34:44.013Z,2.70
2023-04-20T03:37:11.441Z,2.50
2023-04-20T03:39:38.456Z,2.40
2023-04-20T03:42:06.490Z,2.40
2023-04-20T03:44:33.596Z,2.30
2023-04-20T03:47:00.705Z,2.10
2023-04-20T03:49:30.214Z,2.00
2023-04-20T03:51:57.182Z,1.90
2023-04-20T03:54:24.466Z,1.80
2023-04-20T03:56:51.490Z,1.70
2023-04-20T03:59:18.921Z,1.70
2023-04-20T04:01:49.856Z,1.70
2023-04-20T04:04:18.382Z,1.70
2023-04-20T04:06:45.780Z,1.80
2023-04-20T04:09:12.754Z,1.90
2023-04-20T04:11:41.391Z,2.20
2023-04-20T04:14:08.699Z,2.30
2023-04-20T04:16:37.615Z,2.40
2023-04-20T04:19:04.772Z,2.40
2023-04-20T04:21:32.033Z,2.40
2023-04-20T04:24:04.655Z,2.30
2023-04-20T04:26:39.319Z,1.90
2023-04-20T04:29:06.708Z,1.60
2023-04-20T04:31:35.300Z,1.30
2023-04-20T04:34:13.872Z,1.00
2023-04-20T04:36:46.285Z,0.60
2023-04-20T04:39:17.098Z,0.30
2023-04-20T04:41:53.342Z,0.00
2023-04-20T04:44:31.663Z,-0.20
2023-04-20T04:47:02.684Z,-0.60
2023-04-20T04:49:35.966Z,-0.90
2023-04-20T04:52:03.203Z,-1.10
2023-04-20T04:54:33.180Z,-1.10
2023-04-20T04:57:00.270Z,-1.20
2023-04-20T04:59:27.272Z,-1.20
2023-04-20T05:01:57.671Z,-1.30
2023-04-20T05:04:24.731Z,-1.40
2023-04-20T05:06:51.737Z,-1.50
2023-04-20T05:09:18.961Z,-1.60
2023-04-20T05:11:48.019Z,-1.60
2023-04-20T05:14:15.134Z,-1.60
2023-04-20T05:16:42.163Z,-1.60
2023-04-20T05:19:09.166Z,-1.70
2023-04-20T05:21:38.295Z,-1.80
2023-04-20T05:24:06.649Z,-1.90
2023-04-20T05:26:33.654Z,-1.90
2023-04-20T05:29:00.737Z,-1.90
2023-04-20T05:31:27.800Z,-1.90
2023-04-20T05:33:54.834Z,-1.90
2023-04-20T05:36:21.877Z,-1.90
2023-04-20T05:38:48.879Z,-1.80
2023-04-20T05:41:15.892Z,-1.80
2023-04-20T05:43:42.888Z,-1.70
2023-04-20T05:46:10.142Z,-1.70
2023-04-20T05:51:22.233Z,-1.60
2023-04-20T05:53:49.341Z,-1.40
2023-04-20T05:56:18.847Z,-1.40
2023-04-20T05:58:55.925Z,-1.60
2023-04-20T06:01:23.099Z,-1.70
2023-04-20T06:03:50.427Z,-1.80
2023-04-20T06:06:17.667Z,-1.80
2023-04-20T06:08:44.737Z,-1.90
2023-04-20T06:11:11.706Z,-1.90
2023-04-20T06:13:38.753Z,-1.90
2023-04-20T06:16:09.791Z,-2.00
2023-04-20T06:18:37.703Z,-2.00
2023-04-20T06:21:05.007Z,-2.00
2023-04-20T06:23:33.789Z,-1.90
2023-04-20T06:26:00.751Z,-1.90
2023-04-20T06:28:27.826Z,-1.80
2023-04-20T06:30:54.870Z,-1.90
2023-04-20T06:33:21.942Z,-1.80
2023-04-20T06:36:02.284Z,-1.70
2023-04-20T06:38:29.484Z,-1.50
2023-04-20T06:40:59.035Z,-1.30
2023-04-20T06:43:29.089Z,-1.30
2023-04-20T06:45:56.206Z,-1.30
2023-04-20T06:48:32.107Z,-1.10
2023-04-20T06:51:01.259Z,-1.20
2023-04-20T06:53:28.361Z,-1.20
2023-04-20T06:55:58.096Z,-1.20
2023-04-20T06:58:25.154Z,-1.20
2023-04-20T07:00:52.603Z,-1.10
2023-04-20T07:03:22.117Z,-1.10
2023-04-20T07:05:49.223Z,-1.10
2023-04-20T07:08:16.717Z,-1.10
2023-04-20T07:10:46.525Z,-1.20
2023-04-20T07:13:13.515Z,-1.20
2023-04-20T07:15:40.546Z,-1.20
2023-04-20T07:18:10.847Z,-1.30
2023-04-20T07:20:37.960Z,-1.20
2023-04-20T07:23:05.182Z,-1.10
2023-04-20T07:25:33.068Z,-0.90
2023-04-20T07:28:00.226Z,-0.90
2023-04-20T07:30:27.682Z,-0.90
2023-04-20T07:32:54.707Z,-0.70
2023-04-20T07:35:21.970Z,-0.70
2023-04-20T07:40:31.354Z,-1.00
2023-04-20T07:42:58.458Z,-1.10
2023-04-20T07:45:25.805Z,-1.20
2023-04-20T07:47:54.220Z,-1.20
2023-04-20T07:50:21.915Z,-1.20
2023-04-20T07:52:48.980Z,-1.30
2023-04-20T07:55:17.501Z,-1.30
2023-04-20T07:57:45.261Z,-1.40
2023-04-20T08:00:16.523Z,-1.40
2023-04-20T08:02:45.790Z,-1.40
2023-04-20T08:05:46.974Z,-1.30
2023-04-20T08:08:14.058Z,-1.20
2023-04-20T08:10:41.402Z,-1.10
2023-04-20T08:13:08.481Z,-1.10
2023-04-20T08:15:38.697Z,-1.20
2023-04-20T08:18:06.044Z,-1.10
2023-04-20T08:23:01.464Z,-1.00
2023-04-20T08:25:28.513Z,-0.90
2023-04-20T08:27:56.326Z,-0.80
2023-04-20T08:30:23.351Z,-0.80
2023-04-20T08:32:50.494Z,-0.80
2023-04-20T08:35:17.599Z,-0.80
2023-04-20T08:37:45.036Z,-0.70
2023-04-20T08:40:12.569Z,-0.60
2023-04-20T08:42:39.778Z,-0.50
2023-04-20T08:45:07.744Z,-0.50
2023-04-20T08:47:35.900Z,-0.50
2023-04-20T08:50:04.407Z,-0.40
2023-04-20T08:52:32.897Z,-0.30
2023-04-20T08:54:59.882Z,-0.40
2023-04-20T08:57:26.922Z,-0.40
2023-04-20T08:59:54.094Z,-0.40
2023-04-20T09:02:22.146Z,-0.30
2023-04-20T09:04:50.103Z,-0.20
2023-04-20T09:07:19.410Z,-0.20
2023-04-20T09:09:59.592Z,-0.20
2023-04-20T09:12:29.648Z,-0.20
2023-04-20T09:14:57.011Z,-0.10
2023-04-20T09:17:39.502Z,-0.20
2023-04-20T09:20:07.318Z,-0.20
2023-04-20T09:22:41.352Z,-0.20
2023-04-20T09:25:19.348Z,-0.10
2023-04-20T09:28:01.502Z,0.00
2023-04-20T09:30:43.862Z,0.10
2023-04-20T09:33:12.640Z,0.00
2023-04-20T09:35:42.100Z,-0.10
2023-04-20T09:38:10.086Z,-0.20
2023-04-20T09:40:37.459Z,-0.20
2023-04-20T09:43:18.517Z,-0.10
2023-04-20T09:45:47.349Z,0.00
2023-04-20T09:48:19.279Z,-0.10
2023-04-20T09:50:50.031Z,-0.10
2023-04-20T09:53:19.070Z,-0.20
2023-04-20T09:55:48.883Z,-0.30
2023-04-20T09:58:19.622Z,-0.30
2023-04-20T10:00:46.698Z,-0.40
2023-04-20T10:03:17.958Z,-0.30
2023-04-20T10:05:45.255Z,-0.30
2023-04-20T10:08:12.647Z,-0.40
2023-04-20T10:10:45.648Z,-0.40
2023-04-20T10:13:38.425Z,-0.30
2023-04-20T10:16:05.818Z,-0.10
2023-04-20T10:18:32.863Z,-0.20
2023-04-20T10:21:11.182Z,-0.40
2023-04-20T10:23:48.995Z,-0.50
2023-04-20T10:26:16.773Z,-0.60
2023-04-20T10:28:47.238Z,-0.70
2023-04-20T10:31:15.888Z,-0.60
2023-04-20T10:33:50.608Z,-0.50
2023-04-20T10:36:38.243Z,-0.50
2023-04-20T10:39:20.257Z,-0.30
2023-04-20T10:41:54.736Z,-0.20
2023-04-20T10:44:22.193Z,0.10
2023-04-20T10:46:50.888Z,0.10
2023-04-20T10:49:18.985Z,0.10
2023-04-20T10:51:52.099Z,0.30
2023-04-20T10:54:20.132Z,0.30
2023-04-20T10:56:52.058Z,0.30
2023-04-20T10:59:25.291Z,0.40
2023-04-20T11:01:52.668Z,0.30
2023-04-20T11:04:32.815Z,0.50
2023-04-20T11:07:11.243Z,0.50
2023-04-20T11:09:42.539Z,0.40
2023-04-20T11:12:12.833Z,0.50
2023-04-20T11:14:55.079Z,0.60
2023-04-20T11:17:35.445Z,0.60
2023-04-20T11:20:14.556Z,0.60
2023-04-20T11:22:43.118Z,0.60
2023-04-20T11:25:15.240Z,0.70
2023-04-20T11:27:43.246Z,0.70
2023-04-20T11:30:10.743Z,0.70
2023-04-20T11:32:38.659Z,0.80
2023-04-20T11:35:09.557Z,0.70
2023-04-20T11:38:03.105Z,0.80
2023-04-20T11:40:32.594Z,0.70
2023-04-20T11:43:00.863Z,0.80
2023-04-20T11:45:31.324Z,1.00
2023-04-20T11:47:58.472Z,1.00
2023-04-20T11:50:25.985Z,0.90
2023-04-20T11:52:53.003Z,0.90
2023-04-20T11:55:21.565Z,0.80
2023-04-20T11:57:48.660Z,0.90
2023-04-20T12:00:18.249Z,1.10
2023-04-20T12:02:45.478Z,1.40
2023-04-20T12:05:12.791Z,1.40
2023-04-20T12:07:39.858Z,1.40
2023-04-20T12:10:08.408Z,1.20
2023-04-20T12:12:35.605Z,1.30
2023-04-20T12:15:02.624Z,1.50
2023-04-20T12:17:29.626Z,1.60
2023-04-20T12:19:58.105Z,1.50
2023-04-20T12:22:25.155Z,1.30
2023-04-20T12:24:52.298Z,1.20
2023-04-20T12:27:19.261Z,1.10
2023-04-20T12:32:51.212Z,1.40
2023-04-20T12:35:18.872Z,1.50
2023-04-20T12:37:46.038Z,1.30
2023-04-20T12:40:13.399Z,1.30
2023-04-20T12:42:40.515Z,1.30
2023-04-20T12:45:08.093Z,1.20
2023-04-20T12:47:35.163Z,1.30
2023-04-20T12:50:06.186Z,1.20
2023-04-20T12:53:12.171Z,1.20
2023-04-20T12:55:39.384Z,1.20
2023-04-20T12:58:06.542Z,1.30
2023-04-20T13:00:36.566Z,1.20
2023-04-20T13:03:04.169Z,1.30
2023-04-20T13:05:31.443Z,1.20
2023-04-20T13:07:58.480Z,1.20
2023-04-20T13:10:25.690Z,1.10
2023-04-20T13:12:52.832Z,1.20
2023-04-20T13:15:31.736Z,1.10
2023-04-20T13:18:06.101Z,1.00
2023-04-20T13:20:33.204Z,1.20
2023-04-20T13:23:01.630Z,1.30
2023-04-20T13:25:32.509Z,1.40
2023-04-20T13:28:01.502Z,1.30
2023-04-20T13:30:28.519Z,1.30
2023-04-20T13:32:55.723Z,1.20
2023-04-20T13:35:23.861Z,1.20
2023-04-20T13:37:51.038Z,1.20
2023-04-20T13:40:18.167Z,1.30
2023-04-20T13:42:45.140Z,1.40
2023-04-20T13:45:12.598Z,1.40
2023-04-20T13:47:40.196Z,1.40
2023-04-20T13:50:08.036Z,1.50
2023-04-20T13:52:35.602Z,1.50
2023-04-20T13:55:02.627Z,1.70
2023-04-20T13:57:31.741Z,1.90
2023-04-20T14:00:01.086Z,1.90
2023-04-20T14:02:29.139Z,1.80
2023-04-20T14:04:56.876Z,1.80
2023-04-20T14:07:23.899Z,1.80
2023-04-20T14:09:52.930Z,1.90
2023-04-20T14:12:20.237Z,2.00
2023-04-20T14:14:47.207Z,2.10
2023-04-20T14:17:14.673Z,2.20
2023-04-20T14:19:41.647Z,2.30
2023-04-20T14:22:08.662Z,2.40
2023-04-20T14:24:35.712Z,2.60
2023-04-20T14:27:02.953Z,2.60
2023-04-20T14:29:30.085Z,2.70
2023-04-20T14:31:57.649Z,2.60
2023-04-20T14:34:24.816Z,2.60
2023-04-20T14:36:52.102Z,2.60
2023-04-20T14:39:20.777Z,2.60
2023-04-20T14:41:47.754Z,2.60
2023-04-20T14:44:14.852Z,2.50
2023-04-20T14:46:42.535Z,2.60
2023-04-20T14:49:10.844Z,2.60
2023-04-20T14:51:40.096Z,2.60
2023-04-20T14:54:07.151Z,2.70
2023-04-20T14:56:34.827Z,2.80
2023-04-20T14:59:04.834Z,2.80
2023-04-20T15:01:32.048Z,2.90
2023-04-20T15:03:59.366Z,2.90
2023-04-20T15:06:28.516Z,2.90
2023-04-20T15:08:56.567Z,3.00
2023-04-20T15:11:23.834Z,3.00
2023-04-20T15:13:52.219Z,3.00
2023-04-20T15:16:19.250Z,3.10
2023-04-20T15:18:46.663Z,3.20
2023-04-20T15:21:16.347Z,3.40
2023-04-20T15:23:43.372Z,3.50
2023-04-20T15:26:10.398Z,3.60
2023-04-20T15:28:37.349Z,3.60
2023-04-20T15:31:07.860Z,3.60
2023-04-20T15:33:34.837Z,3.70
2023-04-20T15:36:02.139Z,3.50
2023-04-20T15:38:29.091Z,3.60
2023-04-20T15:40:56.127Z,3.70
2023-04-20T15:43:23.132Z,3.80
2023-04-20T15:45:50.168Z,3.80
2023-04-20T15:48:17.725Z,3.90
2023-04-20T15:50:44.811Z,3.90
2023-04-20T15:53:12.446Z,4.00
2023-04-20T15:55:40.146Z,4.00
2023-04-20T15:58:07.240Z,4.20
2023-04-20T16:00:34.596Z,4.30
2023-04-20T16:03:02.569Z,4.30
2023-04-20T16:05:29.873Z,4.40
2023-04-20T16:07:57.011Z,4.50
2023-04-20T16:10:24.079Z,4.70
2023-04-20T16:13:38.071Z,4.70
2023-04-20T16:16:05.335Z,4.80
2023-04-20T16:18:33.132Z,4.80
2023-04-20T16:21:00.112Z,4.80
2023-04-20T16:23:27.196Z,4.90
2023-04-20T16:25:54.333Z,4.90
2023-04-20T16:28:21.525Z,5.00
2023-04-20T16:30:50.473Z,5.10
2023-04-20T16:33:17.974Z,5.10
2023-04-20T16:35:45.219Z,5.20
2023-04-20T16:38:12.233Z,5.20
2023-04-20T16:40:41.848Z,5.20
2023-04-20T16:43:09.279Z,5.20
2023-04-20T16:45:37.983Z,5.30
2023-04-20T16:48:05.240Z,5.30
2023-04-20T16:50:33.717Z,5.30
2023-04-20T16:53:00.951Z,5.40
2023-04-20T16:55:28.362Z,5.40
2023-04-20T16:58:00.364Z,5.30
2023-04-20T17:00:29.632Z,5.20
2023-04-20T17:02:57.316Z,5.10
2023-04-20T17:05:24.873Z,5.00
2023-04-20T17:07:54.524Z,4.90
2023-04-20T17:10:22.333Z,4.90
2023-04-20T17:12:50.194Z,4.90
2023-04-20T17:15:17.234Z,5.00
2023-04-20T17:17:44.235Z,4.90
2023-04-20T17:20:14.491Z,4.90
2023-04-20T17:22:46.657Z,4.90
2023-04-20T17:25:21.905Z,4.90
2023-04-20T17:27:49.001Z,5.00
2023-04-20T17:33:12.342Z,5.00
2023-04-20T17:35:48.420Z,4.90
2023-04-20T17:38:15.392Z,4.90
2023-04-20T17:40:42.348Z,4.90
2023-04-20T17:43:09.431Z,5.00
2023-04-20T17:45:37.211Z,5.10
2023-04-20T17:48:05.541Z,5.00
2023-04-20T17:50:33.295Z,5.10
2023-04-20T17:53:06.708Z,5.10
2023-04-20T17:55:34.856Z,5.10
2023-04-20T17:58:02.063Z,5.10
2023-04-20T18:00:29.046Z,5.10
2023-04-20T18:02:56.344Z,5.10
2023-04-20T18:05:25.867Z,5.00
2023-04-20T18:07:59.039Z,5.00
2023-04-20T18:10:26.506Z,4.90
2023-04-20T18:12:54.114Z,4.80
2023-04-20T18:15:21.273Z,4.80
2023-04-20T18:17:49.614Z,4.80
2023-04-20T18:20:16.822Z,4.70
2023-04-20T18:22:43.875Z,4.70
2023-04-20T18:25:10.951Z,4.70
2023-04-20T18:27:38.316Z,4.80
2023-04-20T18:30:06.180Z,4.70
2023-04-20T18:32:33.266Z,4.70
2023-04-20T18:35:00.612Z,4.70
2023-04-20T18:37:33.884Z,4.70
2023-04-20T18:40:01.015Z,4.60
2023-04-20T18:42:28.035Z,4.60
2023-04-20T18:44:56.123Z,4.60
2023-04-20T18:47:32.017Z,4.60
2023-04-20T18:50:02.148Z,4.50
2023-04-20T18:52:35.264Z,4.50
2023-04-20T18:55:02.784Z,4.50
2023-04-20T18:57:30.342Z,4.50
2023-04-20T18:59:58.588Z,4.40
2023-04-20T19:02:25.995Z,4.40
2023-04-20T19:04:55.078Z,4.30
2023-04-20T19:07:22.104Z,4.30
2023-04-20T19:09:49.095Z,4.30
2023-04-20T19:12:22.856Z,4.30
2023-04-20T19:14:53.562Z,4.30
2023-04-20T19:17:21.178Z,4.40
2023-04-20T19:19:51.078Z,4.40
2023-04-20T19:22:23.173Z,4.40
2023-04-20T19:24:50.829Z,4.50
2023-04-20T19:27:18.543Z,4.50
2023-04-20T19:29:48.653Z,4.50
2023-04-20T19:32:25.569Z,4.40
2023-04-20T19:34:59.867Z,4.40
2023-04-20T19:37:27.515Z,4.30
2023-04-20T19:39:54.809Z,4.20
2023-04-20T19:42:22.976Z,4.20
2023-04-20T19:44:50.133Z,4.10
2023-04-20T19:47:17.130Z,4.20
2023-04-20T19:49:46.481Z,4.10
2023-04-20T19:52:15.065Z,4.10
2023-04-20T19:54:42.483Z,4.10
2023-04-20T19:57:10.157Z,4.20
2023-04-20T19:59:39.129Z,4.30
2023-04-20T20:02:10.454Z,4.30
2023-04-20T20:04:39.368Z,4.40
2023-04-20T20:07:06.567Z,4.50
2023-04-20T20:09:36.728Z,4.50
2023-04-20T20:12:07.024Z,4.50
2023-04-20T20:14:35.902Z,4.50
2023-04-20T20:17:04.654Z,4.40
2023-04-20T20:19:36.962Z,4.40
2023-04-20T20:22:04.228Z,4.40
2023-04-20T20:24:35.724Z,4.30
2023-04-20T20:27:14.768Z,4.30
2023-04-20T20:29:41.775Z,4.40
2023-04-20T20:32:08.710Z,4.40
2023-04-20T20:34:35.757Z,4.50
2023-04-20T20:37:06.900Z,4.40
2023-04-20T20:39:33.857Z,4.40
2023-04-20T20:42:02.094Z,4.40
2023-04-20T20:44:32.954Z,4.30
2023-04-20T20:47:01.112Z,4.40
2023-04-20T20:49:28.272Z,4.40
2023-04-20T20:51:55.321Z,4.40
2023-04-20T20:54:22.399Z,4.30
2023-04-20T20:56:49.365Z,4.40
2023-04-20T20:59:16.488Z,4.40
2023-04-20T21:01:46.789Z,4.40
2023-04-20T21:04:13.930Z,4.40
2023-04-20T21:06:41.090Z,4.50
2023-04-20T21:09:08.042Z,4.50
2023-04-20T21:11:35.194Z,4.50
2023-04-20T21:14:03.610Z,4.60
2023-04-20T21:16:30.659Z,4.70
2023-04-20T21:18:57.733Z,4.70
2023-04-20T21:21:24.715Z,4.70
2023-04-20T21:23:51.706Z,4.70
2023-04-20T21:26:18.739Z,4.70
2023-04-20T21:28:45.841Z,4.70
2023-04-20T21:31:12.883Z,4.80
2023-04-20T21:33:40.016Z,4.70
2023-04-20T21:36:07.712Z,4.70
2023-04-20T21:38:34.893Z,4.70
2023-04-20T21:41:02.166Z,4.80
2023-04-20T21:43:32.250Z,4.80
2023-04-20T21:45:59.264Z,4.80
2023-04-20T21:48:26.291Z,4.80
2023-04-20T21:50:53.438Z,4.80
2023-04-20T21:53:20.428Z,4.80
2023-04-20T21:55:47.567Z,4.80
2023-04-20T21:58:14.562Z,4.70
2023-04-20T22:00:41.615Z,4.60
2023-04-20T22:03:08.951Z,4.60
2023-04-20T22:05:36.586Z,4.60
2023-04-20T22:08:03.925Z,4.60
2023-04-20T22:10:31.111Z,4.60
2023-04-20T22:12:58.169Z,4.60
2023-04-20T22:15:26.313Z,4.40
2023-04-20T22:17:53.429Z,4.30
2023-04-20T22:20:20.545Z,4.40
2023-04-20T22:22:47.583Z,4.50
2023-04-20T22:25:14.561Z,4.60
2023-04-20T22:27:41.602Z,4.70
2023-04-20T22:30:09.840Z,4.80
2023-04-20T22:32:37.833Z,4.90
2023-04-20T22:35:05.370Z,5.00
2023-04-20T22:37:32.449Z,5.00
2023-04-20T22:39:59.608Z,5.10
2023-04-20T22:42:26.639Z,5.10
2023-04-20T22:44:53.726Z,5.10
2023-04-20T22:47:20.733Z,5.10
2023-04-20T22:49:54.197Z,5.20
2023-04-20T22:52:27.447Z,5.20
2023-04-20T22:54:57.658Z,5.20
2023-04-20T22:57:24.817Z,5.20
2023-04-20T22:59:52.091Z,5.20
2023-04-20T23:02:19.316Z,5.20
2023-04-20T23:04:47.517Z,5.20
2023-04-20T23:07:20.469Z,5.20
2023-04-20T23:09:53.956Z,5.10
2023-04-20T23:12:20.995Z,5.00
2023-04-20T23:14:47.938Z,4.80
2023-04-20T23:17:15.077Z,4.60
2023-04-20T23:19:42.081Z,4.40
2023-04-20T23:22:12.056Z,4.30
2023-04-20T23:24:39.129Z,4.40
2023-04-20T23:27:06.196Z,4.30
2023-04-20T23:29:36.853Z,4.20
2023-04-20T23:32:04.131Z,4.20
2023-04-20T23:34:31.149Z,4.10
2023-04-20T23:37:05.679Z,4.10
2023-04-20T23:39:38.933Z,4.00
2023-04-20T23:42:06.157Z,4.10
2023-04-20T23:44:33.198Z,4.10
2023-04-20T23:47:00.253Z,4.10
2023-04-20T23:49:27.265Z,4.20
2023-04-20T23:51:54.281Z,4.30
2023-04-20T23:54:21.361Z,4.30
2023-04-20T23:56:48.353Z,4.30
2023-04-20T23:59:17.754Z,4.30
